createdAt,value
2019-03-29T00:00:05.446Z,102144.00
2019-03-29T00:02:54.755Z,102144.91
2019-03-29T00:05:24.713Z,102146.22
2019-03-29T00:07:54.572Z,102137.50
2019-03-29T00:10:24.612Z,102144.88
2019-03-29T00:12:54.526Z,102132.69
2019-03-29T00:15:43.123Z,102136.14
2019-03-29T00:21:02.373Z,102129.70
2019-03-29T00:23:32.187Z,102082.42
2019-03-29T00:26:02.224Z,102136.62
2019-03-29T00:28:32.162Z,102144.06
2019-03-29T00:31:02.011Z,102144.97
2019-03-29T00:33:31.965Z,102151.05
2019-03-29T00:36:01.789Z,102145.83
2019-03-29T00:38:50.401Z,102147.59
2019-03-29T00:41:20.400Z,102148.48
2019-03-29T00:43:50.239Z,102148.48
2019-03-29T00:46:20.476Z,102148.95
2019-03-29T00:48:50.285Z,102143.25
2019-03-29T00:51:20.335Z,102141.53
2019-03-29T00:53:50.156Z,102134.55
2019-03-29T00:59:16.317Z,102135.91
2019-03-29T01:01:46.678Z,102131.11
2019-03-29T01:04:16.495Z,102121.05
2019-03-29T01:06:46.372Z,102115.38
2019-03-29T01:09:16.264Z,102106.73
2019-03-29T01:11:46.105Z,102109.31
2019-03-29T01:14:16.832Z,102110.63
2019-03-29T01:16:46.762Z,102100.59
2019-03-29T01:19:16.714Z,102097.95
2019-03-29T01:21:46.529Z,102100.59
2019-03-29T01:24:16.596Z,102093.61
2019-03-29T01:26:46.407Z,102030.75
2019-03-29T01:29:16.339Z,102081.39
2019-03-29T01:31:46.168Z,102087.55
2019-03-29T01:34:17.010Z,102079.25
2019-03-29T01:36:47.100Z,102018.06
2019-03-29T01:39:17.219Z,102063.98
2019-03-29T01:41:48.670Z,102063.98
2019-03-29T01:44:18.500Z,102054.77
2019-03-29T01:46:48.646Z,102054.81
2019-03-29T01:49:18.456Z,102048.25
2019-03-29T01:51:48.312Z,102062.69
2019-03-29T01:54:18.153Z,102046.53
2019-03-29T01:56:48.308Z,102052.64
2019-03-29T01:59:18.147Z,102055.27
2019-03-29T02:01:47.958Z,102051.82
2019-03-29T02:04:17.879Z,102052.69
2019-03-29T02:06:47.703Z,102046.57
2019-03-29T02:09:17.627Z,102043.98
2019-03-29T02:11:47.448Z,102035.26
2019-03-29T02:14:18.032Z,102038.83
2019-03-29T02:16:48.962Z,102034.41
2019-03-29T02:19:37.762Z,102029.20
2019-03-29T02:22:08.967Z,102034.48
2019-03-29T02:24:39.645Z,102029.28
2019-03-29T02:29:58.285Z,102020.95
2019-03-29T02:32:28.144Z,102019.69
2019-03-29T02:35:16.897Z,102010.95
2019-03-29T02:37:46.718Z,102003.57
2019-03-29T02:40:16.575Z,102014.52
2019-03-29T02:42:46.412Z,102009.77
2019-03-29T02:45:16.740Z,102001.95
2019-03-29T02:47:48.692Z,102004.13
2019-03-29T02:50:18.265Z,102004.62
2019-03-29T02:52:48.082Z,102000.70
2019-03-29T02:55:18.006Z,102004.20
2019-03-29T02:57:47.882Z,101942.61
2019-03-29T03:00:38.127Z,101990.66
2019-03-29T03:03:07.949Z,101992.39
2019-03-29T03:05:38.666Z,101985.87
2019-03-29T03:08:08.502Z,101992.00
2019-03-29T03:10:38.586Z,101991.12
2019-03-29T03:13:08.476Z,101989.84
2019-03-29T03:15:38.611Z,101994.64
2019-03-29T03:18:08.444Z,101990.30
2019-03-29T03:20:38.463Z,101993.38
2019-03-29T03:23:08.338Z,101985.91
2019-03-29T03:25:38.149Z,101991.61
2019-03-29T03:28:08.049Z,101993.29
2019-03-29T03:30:37.925Z,101991.03
2019-03-29T03:33:07.939Z,101994.47
2019-03-29T03:35:37.748Z,101993.53
2019-03-29T03:38:07.662Z,101997.42
2019-03-29T03:40:37.522Z,101992.13
2019-03-29T03:43:07.495Z,102000.41
2019-03-29T03:45:37.444Z,102000.81
2019-03-29T03:48:07.533Z,101995.10
2019-03-29T03:50:41.894Z,102002.95
2019-03-29T03:53:12.254Z,102008.16
2019-03-29T03:56:00.921Z,102001.09
2019-03-29T03:58:31.306Z,101986.20
2019-03-29T04:01:40.196Z,101983.51
2019-03-29T04:04:28.801Z,101973.39
2019-03-29T04:06:58.834Z,101972.03
2019-03-29T04:09:28.707Z,101848.92
2019-03-29T04:14:54.245Z,101967.95
2019-03-29T04:17:24.079Z,101971.86
2019-03-29T04:19:53.942Z,101930.16
2019-03-29T04:22:23.890Z,101951.59
2019-03-29T04:25:12.541Z,101941.69
2019-03-29T04:27:42.412Z,101938.96
2019-03-29T04:30:31.066Z,101952.42
2019-03-29T04:33:00.986Z,101955.02
2019-03-29T04:35:30.872Z,101953.20
2019-03-29T04:38:19.534Z,101944.88
2019-03-29T04:40:49.395Z,101947.04
2019-03-29T04:43:19.285Z,101942.69
2019-03-29T04:45:49.123Z,101942.64
2019-03-29T04:48:19.222Z,101946.58
2019-03-29T04:50:49.140Z,101939.05
2019-03-29T04:53:19.422Z,101946.03
2019-03-29T04:55:49.312Z,101950.41
2019-03-29T04:58:19.292Z,101938.09
2019-03-29T05:00:49.226Z,101938.94
2019-03-29T05:03:19.367Z,101947.23
2019-03-29T05:06:08.194Z,101835.90
2019-03-29T05:08:38.036Z,101951.97
2019-03-29T05:14:17.113Z,101943.13
2019-03-29T05:16:47.200Z,101943.09
2019-03-29T05:19:17.093Z,101945.70
2019-03-29T05:22:05.743Z,101950.05
2019-03-29T05:24:35.682Z,101946.08
2019-03-29T05:27:05.566Z,101945.58
2019-03-29T05:29:35.393Z,101940.33
2019-03-29T05:32:05.336Z,101949.52
2019-03-29T05:34:35.176Z,101940.77
2019-03-29T05:37:05.290Z,101933.27
2019-03-29T05:39:35.131Z,101924.44
2019-03-29T05:42:05.045Z,101922.78
2019-03-29T05:44:53.767Z,101920.21
2019-03-29T05:50:17.795Z,101921.14
2019-03-29T05:52:47.641Z,101914.61
2019-03-29T05:55:18.720Z,101910.66
2019-03-29T05:57:49.389Z,101912.38
2019-03-29T06:00:20.412Z,101908.01
2019-03-29T06:02:50.268Z,101903.12
2019-03-29T06:05:39.143Z,101895.66
2019-03-29T06:08:08.969Z,101895.66
2019-03-29T06:10:48.862Z,101893.50
2019-03-29T06:13:10.662Z,101889.59
2019-03-29T06:15:40.573Z,101889.14
2019-03-29T06:18:11.096Z,101893.94
2019-03-29T06:20:41.073Z,101881.70
2019-03-29T06:23:10.930Z,101831.56
2019-03-29T06:25:40.836Z,101895.59
2019-03-29T06:28:10.762Z,101889.88
2019-03-29T06:30:40.606Z,101888.12
2019-03-29T06:39:15.932Z,101868.23
2019-03-29T06:41:45.824Z,101870.72
2019-03-29T06:44:15.792Z,101855.73
2019-03-29T06:49:34.473Z,101873.95
2019-03-29T06:54:54.902Z,101856.63
2019-03-29T06:57:24.889Z,101860.40
2019-03-29T06:59:54.830Z,101857.63
2019-03-29T07:02:24.948Z,101859.28
2019-03-29T07:04:54.805Z,101852.16
2019-03-29T07:07:44.636Z,101842.45
2019-03-29T07:10:15.269Z,101850.06
2019-03-29T07:12:45.107Z,101849.77
2019-03-29T07:15:15.299Z,101845.12
2019-03-29T07:17:45.121Z,101854.59
2019-03-29T07:20:15.057Z,101843.14
2019-03-29T07:22:44.929Z,101799.16
2019-03-29T07:28:24.101Z,101856.92
2019-03-29T07:31:12.819Z,101866.30
2019-03-29T07:34:01.505Z,101866.30
2019-03-29T07:36:50.198Z,101861.63
2019-03-29T07:39:40.545Z,101861.63
2019-03-29T07:42:10.508Z,101864.23
2019-03-29T07:44:40.608Z,101863.19
2019-03-29T07:50:19.088Z,101854.33
2019-03-29T07:52:48.779Z,101853.40
2019-03-29T07:58:27.959Z,101838.86
2019-03-29T08:01:18.165Z,101836.80
2019-03-29T08:03:58.974Z,101803.97
2019-03-29T08:06:28.801Z,101803.97
2019-03-29T08:11:56.785Z,101829.95
2019-03-29T08:14:26.703Z,101833.25
2019-03-29T08:17:15.625Z,101839.06
2019-03-29T08:19:45.882Z,101833.13
2019-03-29T08:25:30.814Z,101839.09
2019-03-29T08:28:11.628Z,101760.99
2019-03-29T08:30:52.491Z,101822.91
2019-03-29T08:33:22.553Z,101819.25
2019-03-29T08:35:54.758Z,101815.59
2019-03-29T08:38:24.742Z,101822.39
2019-03-29T08:40:56.250Z,101819.27
2019-03-29T08:43:44.965Z,101811.69
2019-03-29T08:46:35.251Z,101811.69
2019-03-29T08:49:24.016Z,101791.36
2019-03-29T08:51:53.885Z,101808.86
2019-03-29T08:54:24.026Z,101812.72
2019-03-29T08:59:49.894Z,101816.88
2019-03-29T09:02:19.982Z,101810.58
2019-03-29T09:04:50.363Z,101814.97
2019-03-29T09:07:44.919Z,101761.22
2019-03-29T09:10:22.806Z,101823.83
2019-03-29T09:12:52.716Z,101828.76
2019-03-29T09:15:41.213Z,101836.41
2019-03-29T09:18:11.087Z,101839.77
2019-03-29T09:20:40.933Z,101833.41
2019-03-29T09:23:10.993Z,101835.06
2019-03-29T09:28:36.494Z,101848.03
2019-03-29T09:34:15.592Z,101847.48
2019-03-29T09:37:04.362Z,101843.27
2019-03-29T09:42:10.124Z,101845.79
2019-03-29T09:44:41.516Z,101839.12
2019-03-29T09:47:11.363Z,101832.66
2019-03-29T09:49:41.217Z,101839.20
2019-03-29T09:58:26.592Z,101844.38
2019-03-29T10:00:56.543Z,101797.03
2019-03-29T10:06:15.568Z,101847.59
2019-03-29T10:08:46.805Z,101848.36
2019-03-29T10:11:16.915Z,101844.45
2019-03-29T10:13:46.729Z,101838.48
2019-03-29T10:21:46.708Z,101843.66
2019-03-29T10:24:16.525Z,101835.84
2019-03-29T10:29:44.746Z,101835.84
2019-03-29T10:32:14.555Z,101828.19
2019-03-29T10:34:44.506Z,101829.13
2019-03-29T10:37:14.337Z,101826.52
2019-03-29T10:40:02.900Z,101818.08
2019-03-29T10:42:32.868Z,101812.67
2019-03-29T10:45:05.348Z,101810.88
2019-03-29T10:47:43.861Z,101813.06
2019-03-29T10:50:07.364Z,101814.89
2019-03-29T10:52:37.194Z,101811.23
2019-03-29T10:55:07.063Z,101814.23
2019-03-29T10:57:37.050Z,101818.66
2019-03-29T11:00:28.395Z,101810.49
2019-03-29T11:05:33.602Z,101811.81
2019-03-29T11:10:39.754Z,101808.30
2019-03-29T11:13:13.074Z,101813.06
2019-03-29T11:18:35.649Z,101808.75
2019-03-29T11:21:44.585Z,101803.30
2019-03-29T11:24:14.416Z,101796.37
2019-03-29T11:27:03.001Z,101789.64
2019-03-29T11:29:32.866Z,101794.42
2019-03-29T11:32:02.930Z,101792.45
2019-03-29T11:34:32.771Z,101786.86
2019-03-29T11:37:02.745Z,101794.97
2019-03-29T11:42:28.345Z,101787.16
2019-03-29T11:44:58.248Z,101790.34
2019-03-29T11:47:28.268Z,101789.45
2019-03-29T11:50:37.262Z,101783.91
2019-03-29T11:53:07.182Z,101786.86
2019-03-29T11:58:44.456Z,101790.16
2019-03-29T12:01:14.306Z,101777.89
2019-03-29T12:03:44.212Z,101783.06
2019-03-29T12:09:19.780Z,101777.89
2019-03-29T12:11:49.639Z,101775.02
2019-03-29T12:14:19.678Z,101763.66
2019-03-29T12:19:45.597Z,101778.87
2019-03-29T12:22:15.420Z,101770.41
2019-03-29T12:24:45.443Z,101713.52
2019-03-29T12:27:15.280Z,101768.61
2019-03-29T12:29:45.136Z,101763.53
2019-03-29T12:35:35.633Z,101762.22
2019-03-29T12:41:07.333Z,101751.33
2019-03-29T12:43:56.291Z,101753.02
2019-03-29T12:46:26.342Z,101750.31
2019-03-29T12:48:56.168Z,101737.20
2019-03-29T12:51:26.004Z,101736.55
2019-03-29T12:53:56.019Z,101735.09
2019-03-29T12:56:25.853Z,101728.86
2019-03-29T12:58:55.810Z,101730.77
2019-03-29T13:01:38.462Z,101730.96
2019-03-29T13:03:57.751Z,101707.13
2019-03-29T13:06:27.616Z,101708.33
2019-03-29T13:12:04.938Z,101694.44
2019-03-29T13:14:53.647Z,101703.22
2019-03-29T13:20:03.686Z,101696.28
2019-03-29T13:22:52.435Z,101700.05
2019-03-29T13:25:22.442Z,101694.91
2019-03-29T13:27:55.411Z,101685.09
2019-03-29T13:30:26.517Z,101684.49
2019-03-29T13:32:56.442Z,101571.51
2019-03-29T13:35:26.356Z,101677.16
2019-03-29T13:38:35.460Z,101675.22
2019-03-29T13:41:06.974Z,101674.16
2019-03-29T13:43:36.977Z,101674.89
2019-03-29T13:49:02.734Z,101657.49
2019-03-29T13:51:32.556Z,101659.02
2019-03-29T13:54:02.671Z,101657.43
2019-03-29T13:56:32.625Z,101652.95
2019-03-29T13:59:02.520Z,101654.49
2019-03-29T14:01:32.447Z,101652.46
2019-03-29T14:04:02.344Z,101657.05
2019-03-29T14:06:32.414Z,101651.63
2019-03-29T14:09:02.241Z,101648.61
2019-03-29T14:11:32.422Z,101651.53
2019-03-29T14:14:02.266Z,101647.78
2019-03-29T14:16:32.348Z,101637.89
2019-03-29T14:19:02.185Z,101626.37
2019-03-29T14:21:32.026Z,101625.69
2019-03-29T14:24:01.865Z,101637.90
2019-03-29T14:26:31.720Z,101626.34
2019-03-29T14:29:01.656Z,101604.42
2019-03-29T14:31:31.537Z,101615.10
2019-03-29T14:34:01.560Z,101612.20
2019-03-29T14:36:31.369Z,101614.56
2019-03-29T14:39:01.427Z,101613.78
2019-03-29T14:41:31.285Z,101600.94
2019-03-29T14:44:01.350Z,101595.93
2019-03-29T14:49:42.582Z,101576.13
2019-03-29T14:52:12.437Z,101582.79
2019-03-29T14:54:42.550Z,101577.62
2019-03-29T14:57:14.726Z,101575.94
2019-03-29T14:59:55.465Z,101576.86
2019-03-29T15:02:25.342Z,101575.53
2019-03-29T15:04:55.223Z,101566.92
2019-03-29T15:10:34.545Z,101562.77
2019-03-29T15:16:14.002Z,101554.76
2019-03-29T15:18:43.815Z,101561.43
2019-03-29T15:21:13.709Z,101559.24
2019-03-29T15:23:43.586Z,101567.44
2019-03-29T15:26:13.680Z,101556.72
2019-03-29T15:28:43.506Z,101559.11
2019-03-29T15:31:32.450Z,101552.69
2019-03-29T15:34:02.491Z,101543.77
2019-03-29T15:36:32.355Z,101556.44
2019-03-29T15:39:02.478Z,101546.05
2019-03-29T15:44:52.693Z,101539.89
2019-03-29T15:53:12.082Z,101530.38
2019-03-29T15:55:42.368Z,101528.54
2019-03-29T15:58:32.524Z,101521.80
2019-03-29T16:01:02.363Z,101528.28
2019-03-29T16:06:52.340Z,101518.47
2019-03-29T16:09:22.361Z,101508.83
2019-03-29T16:14:48.203Z,101517.09
2019-03-29T16:17:18.031Z,101435.67
2019-03-29T16:20:27.077Z,101516.44
2019-03-29T16:22:56.991Z,101504.48
2019-03-29T16:25:26.919Z,101505.25
2019-03-29T16:27:57.067Z,101492.95
2019-03-29T16:30:26.927Z,101497.38
2019-03-29T16:32:58.838Z,101503.80
2019-03-29T16:35:28.685Z,101505.06
2019-03-29T16:37:58.846Z,101504.84
2019-03-29T16:40:31.085Z,101497.84
2019-03-29T16:43:00.347Z,101489.73
2019-03-29T16:45:48.874Z,101476.89
2019-03-29T16:51:14.078Z,101488.13
2019-03-29T16:53:44.076Z,101478.45
2019-03-29T17:02:07.862Z,101484.16
2019-03-29T17:04:37.893Z,101478.27
2019-03-29T17:07:07.703Z,101424.36
2019-03-29T17:09:37.760Z,101477.42
2019-03-29T17:12:07.612Z,101480.41
2019-03-29T17:14:37.471Z,101476.69
2019-03-29T17:17:19.320Z,101481.80
2019-03-29T17:19:49.311Z,101484.27
2019-03-29T17:28:26.852Z,101484.23
2019-03-29T17:33:53.488Z,101486.42
2019-03-29T17:36:23.334Z,101495.05
2019-03-29T17:38:53.169Z,101498.29
2019-03-29T17:41:23.266Z,101500.19
2019-03-29T17:43:53.200Z,101496.02
2019-03-29T17:46:23.262Z,101504.09
2019-03-29T17:51:48.574Z,101494.39
2019-03-29T17:54:18.410Z,101494.98
2019-03-29T17:56:48.659Z,101500.06
2019-03-29T17:59:18.492Z,101507.25
2019-03-29T18:01:48.478Z,101509.73
2019-03-29T18:04:18.353Z,101420.66
2019-03-29T18:07:08.854Z,101471.45
2019-03-29T18:09:38.729Z,101471.45
2019-03-29T18:12:47.716Z,101514.95
2019-03-29T18:15:19.117Z,101511.63
2019-03-29T18:17:49.093Z,101516.13
2019-03-29T18:20:37.928Z,101497.87
2019-03-29T18:26:37.783Z,101504.31
2019-03-29T18:29:07.986Z,101504.31
2019-03-29T18:32:17.008Z,101470.84
2019-03-29T18:34:47.147Z,101502.64
2019-03-29T18:37:56.256Z,101503.58
2019-03-29T18:43:34.286Z,101496.73
2019-03-29T18:46:04.158Z,101505.51
2019-03-29T18:48:34.327Z,101505.51
2019-03-29T18:51:04.210Z,101508.72
2019-03-29T18:53:34.356Z,101504.86
2019-03-29T18:56:04.204Z,101505.88
2019-03-29T18:58:34.523Z,101501.62
2019-03-29T19:01:04.621Z,101493.38
2019-03-29T19:03:34.769Z,101497.42
2019-03-29T19:09:00.198Z,101494.17
2019-03-29T19:11:32.479Z,101443.98
2019-03-29T19:14:21.141Z,101494.34
2019-03-29T19:16:58.884Z,101490.53
2019-03-29T19:19:23.534Z,101482.69
2019-03-29T19:21:53.400Z,101468.48
2019-03-29T19:27:32.698Z,101492.81
2019-03-29T19:30:41.580Z,101485.89
2019-03-29T19:35:47.505Z,101487.77
2019-03-29T19:38:17.355Z,101488.78
2019-03-29T19:40:47.553Z,101490.61
2019-03-29T19:43:17.454Z,101505.95
2019-03-29T19:45:47.630Z,101492.17
2019-03-29T19:48:17.521Z,101439.30
2019-03-29T19:54:07.107Z,101489.20
2019-03-29T19:56:48.803Z,101481.36
2019-03-29T19:59:18.718Z,101483.19
2019-03-29T20:02:07.472Z,101480.59
2019-03-29T20:04:37.349Z,101485.02
2019-03-29T20:07:07.186Z,101506.92
2019-03-29T20:09:55.946Z,101515.61
2019-03-29T20:12:44.843Z,101507.69
2019-03-29T20:15:15.178Z,101429.16
2019-03-29T20:20:54.607Z,101497.31
2019-03-29T20:36:39.176Z,101522.85
2019-03-29T20:39:09.422Z,101522.85
2019-03-29T20:41:58.030Z,101509.22
2019-03-29T20:44:28.357Z,101509.22
2019-03-29T20:46:58.246Z,101513.55
2019-03-29T20:49:28.441Z,101504.05
2019-03-29T20:51:58.292Z,101504.05
2019-03-29T20:54:29.542Z,101510.22
2019-03-29T20:56:59.715Z,101510.62
2019-03-29T20:59:29.869Z,101506.76
2019-03-29T21:02:18.504Z,101522.58
2019-03-29T21:04:48.688Z,101522.58
2019-03-29T21:07:37.587Z,101521.70
2019-03-29T21:10:07.998Z,101521.70
2019-03-29T21:12:38.057Z,101516.88
2019-03-29T21:15:08.566Z,101519.99
2019-03-29T21:17:39.213Z,101517.36
2019-03-29T21:20:48.126Z,101456.23
2019-03-29T21:23:36.739Z,101504.30
2019-03-29T21:26:06.786Z,101508.64
2019-03-29T21:28:36.656Z,101503.47
2019-03-29T21:31:06.527Z,101500.92
2019-03-29T21:33:55.195Z,101499.21
2019-03-29T21:39:17.021Z,101504.47
2019-03-29T21:44:45.203Z,101512.36
2019-03-29T21:47:16.357Z,101512.31
2019-03-29T21:49:46.348Z,101507.54
2019-03-29T21:52:16.320Z,101514.12
2019-03-29T21:54:46.160Z,101508.81
2019-03-29T21:57:16.355Z,101505.78
2019-03-29T22:02:55.549Z,101507.02
2019-03-29T22:08:44.532Z,101496.09
2019-03-29T22:11:33.194Z,101498.73
2019-03-29T22:14:03.053Z,101504.38
2019-03-29T22:16:51.669Z,101489.61
2019-03-29T22:19:21.916Z,101492.28
2019-03-29T22:25:01.614Z,101497.54
2019-03-29T22:27:31.504Z,101492.23
2019-03-29T22:30:01.428Z,101486.98
2019-03-29T22:32:31.255Z,101496.58
2019-03-29T22:35:21.441Z,101491.88
2019-03-29T22:41:00.464Z,101489.30
2019-03-29T22:43:30.350Z,101490.66
2019-03-29T22:46:00.270Z,101495.04
2019-03-29T22:48:30.097Z,101486.23
2019-03-29T22:51:00.316Z,101484.08
2019-03-29T22:53:49.268Z,101483.20
2019-03-29T22:56:19.164Z,101481.89
2019-03-29T22:59:07.779Z,101477.95
2019-03-29T23:04:52.516Z,101472.64
2019-03-29T23:07:22.350Z,101474.92
2019-03-29T23:09:52.668Z,101472.69
2019-03-29T23:12:22.527Z,101480.62
2019-03-29T23:15:12.833Z,101483.30
2019-03-29T23:17:42.753Z,101481.89
2019-03-29T23:20:31.394Z,101477.99
2019-03-29T23:23:01.263Z,101478.43
2019-03-29T23:25:31.102Z,101472.42
2019-03-29T23:28:40.117Z,101478.52
2019-03-29T23:31:30.268Z,101481.58
2019-03-29T23:34:00.112Z,101471.94
2019-03-29T23:36:30.199Z,101471.06
2019-03-29T23:39:00.059Z,101481.15
2019-03-29T23:41:30.261Z,101476.72
2019-03-29T23:44:00.091Z,101409.39
2019-03-29T23:46:48.659Z,101462.74
2019-03-29T23:49:29.250Z,101358.61
2019-03-29T23:51:59.177Z,101464.58
2019-03-29T23:54:29.330Z,101458.41
